Time;durP1;ratioP1;P1;durP2;ratioP2;P2;SDS_P1;SDS_P2;PMS_P1;PMS_P2;Temp;Humidity;BMP_temperature;BMP_pressure;BME280_temperature;BME280_humidity;BME280_pressure;Samples;Min_cycle;Max_cycle;Signal;HPM_P1;HPM_P2
2023/03/03 00:00:50;;;;;;;131.82;46.25;;;;;;;-0.18;100.00;102025.19;4989932;28;20038;-77
2023/03/03 00:03:20;;;;;;;124.82;45.08;;;;;;;-0.23;100.00;102026.19;4988130;28;20545;-77
2023/03/03 00:05:45;;;;;;;141.85;46.47;;;;;;;-0.25;100.00;102030.50;4993485;28;20052;-78
2023/03/03 00:08:11;;;;;;;131.43;46.50;;;;;;;-0.25;100.00;102029.69;4991808;28;20038;-78
2023/03/03 00:10:38;;;;;;;143.05;47.40;;;;;;;-0.27;100.00;102029.72;4989412;28;20040;-78
2023/03/03 00:13:05;;;;;;;137.10;47.40;;;;;;;-0.27;100.00;102028.91;4987494;28;20172;-77
2023/03/03 00:15:30;;;;;;;131.43;46.90;;;;;;;-0.26;100.00;102035.69;4989989;28;20045;-77
2023/03/03 00:17:56;;;;;;;135.32;47.72;;;;;;;-0.27;100.00;102032.28;4992580;28;20030;-77
2023/03/03 00:20:29;;;;;;;138.63;47.83;;;;;;;-0.25;100.00;102038.16;4993657;28;20092;-78
2023/03/03 00:22:55;;;;;;;168.30;54.50;;;;;;;-0.25;100.00;102040.69;4972483;28;20026;-78
2023/03/03 00:25:33;;;;;;;173.98;56.05;;;;;;;-0.17;100.00;102044.69;4988759;28;20492;-78
2023/03/03 00:28:15;;;;;;;171.88;56.63;;;;;;;-0.09;100.00;102051.19;4974879;28;20420;-77
2023/03/03 00:30:40;;;;;;;173.55;56.60;;;;;;;-0.16;100.00;102044.63;4987358;28;20049;-77
2023/03/03 00:33:31;;;;;;;195.00;60.20;;;;;;;-0.09;100.00;102048.63;4988595;28;20038;-77
2023/03/03 00:36:20;;;;;;;192.43;61.85;;;;;;;-0.10;100.00;102054.59;4988764;28;20038;-76
2023/03/03 00:38:47;;;;;;;197.68;64.00;;;;;;;-0.07;100.00;102051.13;4966058;28;20045;-76
2023/03/03 00:41:27;;;;;;;217.90;64.20;;;;;;;-0.07;100.00;102051.94;4989706;28;20038;-77
2023/03/03 00:43:53;;;;;;;212.32;64.00;;;;;;;-0.04;100.00;102056.09;4974169;28;20044;-77
2023/03/03 00:46:22;;;;;;;208.65;63.83;;;;;;;0.05;100.00;102065.13;4972568;28;20042;-78
2023/03/03 00:48:49;;;;;;;209.98;64.28;;;;;;;0.02;100.00;102066.09;4983625;28;20030;-77
2023/03/03 00:51:22;;;;;;;232.52;67.13;;;;;;;-0.01;100.00;102061.94;4958935;28;20142;-77
2023/03/03 00:53:48;;;;;;;201.68;63.30;;;;;;;-0.04;100.00;102056.94;4976430;28;20496;-77
2023/03/03 00:56:14;;;;;;;213.15;63.58;;;;;;;-0.06;100.00;102056.19;5005787;23;20049;-70
2023/03/03 00:58:40;;;;;;;220.93;65.32;;;;;;;-0.05;100.00;102055.28;5010958;28;20037;-70
2023/03/03 01:01:05;;;;;;;217.00;66.35;;;;;;;-0.05;100.00;102068.03;5021284;28;20033;-70
2023/03/03 01:03:40;;;;;;;215.75;65.13;;;;;;;-0.03;100.00;102067.97;5025370;28;20033;-70
2023/03/03 01:06:05;;;;;;;208.02;64.53;;;;;;;-0.03;100.00;102065.44;5015541;28;20046;-70
2023/03/03 01:08:31;;;;;;;208.65;63.90;;;;;;;-0.02;100.00;102067.06;5041396;28;20584;-70
2023/03/03 01:11:02;;;;;;;203.50;62.38;;;;;;;-0.03;100.00;102067.97;5020542;28;20120;-70
2023/03/03 01:13:33;;;;;;;208.02;62.58;;;;;;;0.08;100.00;102077.78;5025744;28;20039;-70
2023/03/03 01:16:01;;;;;;;208.13;62.50;;;;;;;0.03;100.00;102075.41;5024460;28;20098;-70
2023/03/03 01:18:27;;;;;;;192.10;59.03;;;;;;;0.01;100.00;102071.25;5041154;28;20041;-70
2023/03/03 01:20:52;;;;;;;192.55;59.63;;;;;;;-0.03;100.00;102081.56;5012934;28;20578;-70
2023/03/03 01:23:18;;;;;;;204.65;60.90;;;;;;;0.00;100.00;102075.53;5026582;28;20039;-70
2023/03/03 01:25:44;;;;;;;199.48;59.75;;;;;;;0.03;100.00;102074.56;5043764;28;20465;-70
2023/03/03 01:28:09;;;;;;;190.02;59.33;;;;;;;0.03;100.00;102074.56;5038446;28;20029;-70
2023/03/03 01:30:35;;;;;;;188.45;57.58;;;;;;;0.12;100.00;102072.50;5025185;28;20457;-70
2023/03/03 01:33:00;;;;;;;192.85;57.80;;;;;;;0.03;100.00;102074.56;5025868;28;20040;-70
2023/03/03 01:35:26;;;;;;;189.10;58.45;;;;;;;0.12;100.00;102076.78;5026669;28;20043;-71
2023/03/03 01:37:52;;;;;;;190.85;57.70;;;;;;;0.04;100.00;102073.66;5011658;28;20464;-70
2023/03/03 01:40:28;;;;;;;200.07;60.25;;;;;;;-0.03;100.00;102073.06;5007314;28;20040;-70
2023/03/03 01:42:53;;;;;;;189.27;57.92;;;;;;;-0.07;100.00;102069.81;5023602;28;20431;-70
2023/03/03 01:45:23;;;;;;;196.18;59.55;;;;;;;-0.08;100.00;102074.97;5024697;28;20126;-70
2023/03/03 01:47:55;;;;;;;198.60;61.20;;;;;;;-0.02;100.00;102077.28;5040011;28;20036;-70
2023/03/03 01:50:27;;;;;;;;;;;;;;;0.01;100.00;102076.34;5026637;28;20082;-70
2023/03/03 01:52:53;;;;;;;191.27;57.40;;;;;;;0.03;100.00;102080.50;5043921;28;20267;-70
2023/03/03 01:55:28;;;;;;;182.38;57.97;;;;;;;0.02;100.00;102078.84;5030821;28;20095;-70
2023/03/03 01:58:03;;;;;;;176.68;57.20;;;;;;;0.02;100.00;102075.44;5025416;28;20025;-70
2023/03/03 02:00:30;;;;;;;181.43;58.28;;;;;;;0.01;100.00;102076.34;5026754;28;20094;-70
2023/03/03 02:02:56;;;;;;;175.98;57.95;;;;;;;0.01;100.00;102071.25;5026024;28;20398;-70
2023/03/03 02:05:21;;;;;;;176.00;58.70;;;;;;;0.09;100.00;102074.34;5024280;28;20033;-70
2023/03/03 02:07:50;;;;;;;179.02;58.60;;;;;;;0.05;100.00;102060.03;5027459;28;20025;-70
2023/03/03 02:10:18;;;;;;;171.52;59.53;;;;;;;0.08;100.00;102054.84;5023442;28;20116;-69
2023/03/03 02:12:48;;;;;;;159.38;56.85;;;;;;;0.11;100.00;102067.47;5029534;28;20032;-70
2023/03/03 02:15:24;;;;;;;174.75;56.83;;;;;;;0.10;100.00;102064.09;5036137;28;20041;-70
2023/03/03 02:17:53;;;;;;;157.27;54.83;;;;;;;0.19;100.00;102061.19;5023106;28;20037;-70
2023/03/03 02:20:24;;;;;;;153.30;54.60;;;;;;;0.10;100.00;102061.53;5025226;28;21863;-70
2023/03/03 02:22:56;;;;;;;150.60;53.80;;;;;;;0.08;100.00;102065.03;5028095;28;20036;-70
2023/03/03 02:25:40;;;;;;;161.67;54.83;;;;;;;0.06;100.00;102065.09;5012241;28;20048;-70
2023/03/03 02:28:06;;;;;;;158.10;52.38;;;;;;;0.03;100.00;102066.91;5041110;28;20051;-70
2023/03/03 02:30:37;;;;;;;145.90;52.08;;;;;;;0.03;100.00;102064.38;5008534;28;20421;-70
2023/03/03 02:33:03;;;;;;;151.20;52.55;;;;;;;0.14;100.00;102059.69;5024529;28;20035;-70
2023/03/03 02:35:32;;;;;;;172.05;56.17;;;;;;;0.10;100.00;102066.63;5035365;28;20041;-70
2023/03/03 02:38:05;;;;;;;165.48;54.53;;;;;;;0.02;100.00;102068.66;5010479;28;20532;-70
2023/03/03 02:40:36;;;;;;;154.27;52.63;;;;;;;-0.01;100.00;102073.84;5038117;28;20128;-70
2023/03/03 02:43:05;;;;;;;150.50;52.28;;;;;;;0.05;100.00;102078.72;5027680;28;20025;-70
2023/03/03 02:45:31;;;;;;;163.70;55.03;;;;;;;0.06;100.00;102072.75;5026871;28;20128;-70
2023/03/03 02:47:56;;;;;;;150.65;52.35;;;;;;;0.04;100.00;102066.88;5027234;28;20036;-71
2023/03/03 02:50:23;;;;;;;155.60;55.00;;;;;;;-0.02;100.00;102067.94;5024071;28;20036;-71
2023/03/03 02:52:48;;;;;;;158.07;54.63;;;;;;;0.01;100.00;102072.06;5046702;28;20442;-70
2023/03/03 02:55:14;;;;;;;159.85;55.08;;;;;;;0.00;100.00;102078.06;5007819;28;20033;-70
2023/03/03 02:57:39;;;;;;;150.07;54.47;;;;;;;0.05;100.00;102077.91;5009556;28;20487;-70
2023/03/03 03:00:05;;;;;;;158.20;53.22;;;;;;;-0.04;100.00;102085.00;5041704;28;20036;-70
2023/03/03 03:02:31;;;;;;;149.23;51.95;;;;;;;0.06;100.00;102084.66;5040716;28;20174;-70
2023/03/03 03:04:57;;;;;;;157.35;53.80;;;;;;;0.03;100.00;102085.59;5030327;28;20056;-71
2023/03/03 03:07:23;;;;;;;154.88;51.95;;;;;;;-0.01;100.00;102079.78;5027617;28;20129;-70
2023/03/03 03:09:49;;;;;;;147.35;52.15;;;;;;;0.08;100.00;102085.44;5031161;28;20108;-70
2023/03/03 03:12:18;;;;;;;149.93;50.40;;;;;;;-0.02;100.00;102088.34;5025253;28;20111;-70
2023/03/03 03:14:43;;;;;;;147.05;52.72;;;;;;;0.03;100.00;102088.16;5032332;28;20068;-70
2023/03/03 03:17:10;;;;;;;148.73;53.22;;;;;;;0.05;100.00;102088.91;5027400;28;20080;-70
2023/03/03 03:19:36;;;;;;;171.45;57.08;;;;;;;0.06;100.00;102093.16;5029225;28;20037;-70
2023/03/03 03:22:02;;;;;;;167.43;57.20;;;;;;;-0.02;100.00;102087.47;5007029;28;20030;-70
2023/03/03 03:24:28;;;;;;;155.35;56.40;;;;;;;0.01;100.00;102087.38;5012445;28;20091;-70
2023/03/03 03:26:59;;;;;;;159.07;56.75;;;;;;;-0.04;100.00;102095.22;5030916;28;20063;-70
2023/03/03 03:29:26;;;;;;;173.38;58.10;;;;;;;-0.02;100.00;102102.78;5028615;28;20475;-70
2023/03/03 03:31:52;;;;;;;174.00;58.30;;;;;;;0.03;100.00;102100.09;5012159;28;20083;-71
2023/03/03 03:34:17;;;;;;;169.32;54.72;;;;;;;0.05;100.00;102094.03;5014140;28;20487;-70
2023/03/03 03:36:45;;;;;;;173.82;56.35;;;;;;;0.16;100.00;102097.00;5026593;28;20040;-70
2023/03/03 03:39:12;;;;;;;181.07;59.35;;;;;;;0.12;100.00;102092.91;5036483;28;20041;-70
2023/03/03 03:41:41;;;;;;;169.40;55.47;;;;;;;0.17;100.00;102091.03;5010921;28;20025;-70
2023/03/03 03:44:07;;;;;;;178.07;57.28;;;;;;;0.15;100.00;102099.63;5043350;28;20044;-70
2023/03/03 03:46:33;;;;;;;178.80;57.63;;;;;;;0.13;100.00;102092.03;5026366;28;20053;-70
2023/03/03 03:48:59;;;;;;;182.43;57.72;;;;;;;0.16;100.00;102101.28;5024128;28;20043;-70
2023/03/03 03:51:25;;;;;;;175.38;58.25;;;;;;;0.08;100.00;102104.13;5027087;28;20045;-70
2023/03/03 03:53:50;;;;;;;174.00;59.88;;;;;;;0.18;100.00;102095.22;5028951;28;20087;-70
2023/03/03 03:56:16;;;;;;;173.75;59.25;;;;;;;0.15;100.00;102102.16;5026670;28;20121;-70
2023/03/03 03:58:44;;;;;;;185.38;60.65;;;;;;;0.16;100.00;102104.66;5044439;28;20203;-71
2023/03/03 04:01:12;;;;;;;179.18;58.67;;;;;;;0.18;100.00;102099.50;5015243;28;20043;-70
2023/03/03 04:03:43;;;;;;;177.85;58.03;;;;;;;0.10;100.00;102099.78;5013777;28;20021;-70
2023/03/03 04:06:12;;;;;;;185.68;62.38;;;;;;;0.11;100.00;102095.53;5028401;28;20868;-71
2023/03/03 04:08:38;;;;;;;182.63;59.42;;;;;;;0.17;100.00;102097.84;5011725;28;20033;-70
2023/03/03 04:11:03;;;;;;;188.57;58.15;;;;;;;0.14;100.00;102093.69;5027369;28;20029;-70
2023/03/03 04:13:30;;;;;;;202.20;66.15;;;;;;;0.16;100.00;102096.19;5042646;28;20131;-70
2023/03/03 04:15:57;;;;;;;180.10;61.50;;;;;;;0.14;100.00;102092.88;5027783;28;20037;-70
2023/03/03 04:18:23;;;;;;;193.48;62.97;;;;;;;0.07;100.00;102084.59;5026083;28;20025;-72
2023/03/03 04:20:51;;;;;;;189.65;60.22;;;;;;;0.02;100.00;102095.84;5028522;28;20102;-70
2023/03/03 04:23:16;;;;;;;174.95;60.20;;;;;;;0.04;100.00;102097.47;5024694;28;20040;-70
2023/03/03 04:25:42;;;;;;;189.88;62.72;;;;;;;0.13;100.00;102101.41;5028013;28;20663;-70
2023/03/03 04:28:13;;;;;;;192.68;61.95;;;;;;;0.14;100.00;102110.72;5027329;28;20513;-70
2023/03/03 04:30:39;;;;;;;188.98;60.95;;;;;;;0.09;100.00;102105.78;5025617;28;20159;-70
2023/03/03 04:33:05;;;;;;;193.98;61.47;;;;;;;0.07;100.00;102114.38;5024163;28;20036;-70
2023/03/03 04:35:30;;;;;;;198.57;63.90;;;;;;;0.02;100.00;102109.47;5024275;28;20518;-70
2023/03/03 04:37:56;;;;;;;201.73;64.00;;;;;;;-0.05;100.00;102116.50;5024055;28;20037;-71
2023/03/03 04:40:23;;;;;;;191.02;60.95;;;;;;;0.05;100.00;102109.31;5026513;28;20039;-70
2023/03/03 04:42:50;;;;;;;199.48;60.30;;;;;;;0.04;100.00;102110.22;5028252;28;20383;-70
2023/03/03 04:45:16;;;;;;;206.02;62.83;;;;;;;-0.06;100.00;102111.44;5011174;28;20036;-71
2023/03/03 04:47:43;;;;;;;202.02;63.88;;;;;;;-0.10;100.00;102109.88;5024539;28;20051;-71
2023/03/03 04:50:10;;;;;;;205.55;63.55;;;;;;;-0.11;100.00;102113.34;5023373;28;20483;-70
2023/03/03 04:52:36;;;;;;;209.82;64.72;;;;;;;-0.13;100.00;102108.28;5025755;28;20033;-70
2023/03/03 04:55:03;;;;;;;213.07;66.05;;;;;;;-0.01;100.00;102117.22;5022292;28;20029;-70
2023/03/03 04:57:29;;;;;;;206.18;64.07;;;;;;;-0.07;100.00;102109.78;5030850;28;20407;-71
2023/03/03 04:59:55;;;;;;;190.63;60.70;;;;;;;-0.02;100.00;102115.53;5038181;28;20032;-70
2023/03/03 05:02:21;;;;;;;206.18;65.03;;;;;;;-0.14;100.00;102113.44;5025885;28;20376;-70
2023/03/03 05:04:47;;;;;;;202.68;62.05;;;;;;;-0.16;100.00;102115.22;5042278;28;20029;-70
2023/03/03 05:07:12;;;;;;;200.57;62.65;;;;;;;-0.16;100.00;102121.13;5028762;28;20044;-71
2023/03/03 05:09:38;;;;;;;188.88;59.47;;;;;;;-0.07;100.00;102120.81;5045926;28;20041;-70
2023/03/03 05:12:03;;;;;;;192.57;56.00;;;;;;;-0.08;100.00;102118.31;5023807;28;20090;-70
2023/03/03 05:14:30;;;;;;;196.65;59.60;;;;;;;-0.10;100.00;102118.34;5042718;28;20029;-70
2023/03/03 05:16:56;;;;;;;200.45;58.30;;;;;;;-0.14;100.00;102124.47;5024855;28;20175;-70
2023/03/03 05:19:21;;;;;;;204.23;60.70;;;;;;;-0.10;100.00;102117.53;5028453;28;20559;-70
2023/03/03 05:21:47;;;;;;;214.40;61.22;;;;;;;-0.14;100.00;102121.91;5044681;28;20033;-70
2023/03/03 05:24:13;;;;;;;193.57;59.63;;;;;;;-0.13;100.00;102125.28;5010523;28;20034;-71
2023/03/03 05:26:39;;;;;;;180.45;55.33;;;;;;;-0.11;100.00;102129.47;5040864;28;20029;-70
2023/03/03 05:29:05;;;;;;;191.98;59.13;;;;;;;-0.08;100.00;102131.88;5028019;28;20036;-70
2023/03/03 05:31:31;;;;;;;189.55;55.55;;;;;;;-0.09;100.00;102134.50;5042499;28;20074;-70
2023/03/03 05:33:56;;;;;;;189.80;55.33;;;;;;;-0.10;100.00;102127.75;5044171;28;20466;-71
2023/03/03 05:36:22;;;;;;;196.93;56.53;;;;;;;-0.01;100.00;102125.69;5025205;28;20041;-70
2023/03/03 05:38:47;;;;;;;194.57;55.50;;;;;;;-0.03;100.00;102134.28;5028005;28;20080;-70
2023/03/03 05:41:13;;;;;;;193.07;59.78;;;;;;;-0.07;100.00;102127.63;5012563;28;20057;-71
2023/03/03 05:43:38;;;;;;;197.15;59.00;;;;;;;-0.09;100.00;102134.50;5042834;28;20552;-70
2023/03/03 05:46:04;;;;;;;200.55;59.15;;;;;;;-0.16;100.00;102133.06;5019825;28;20036;-71
2023/03/03 05:48:29;;;;;;;199.65;60.58;;;;;;;-0.17;100.00;102137.34;5042999;28;20474;-70
2023/03/03 05:50:58;;;;;;;191.80;58.47;;;;;;;-0.17;100.00;102141.59;5026302;28;20028;-70
2023/03/03 05:53:24;;;;;;;193.07;58.85;;;;;;;-0.14;100.00;102138.94;5022649;28;20037;-70
2023/03/03 05:55:50;;;;;;;175.80;57.95;;;;;;;-0.16;100.00;102146.63;5028119;28;20376;-71
2023/03/03 05:58:15;;;;;;;187.65;58.75;;;;;;;-0.17;100.00;102139.03;5023376;28;20048;-70
2023/03/03 06:00:41;;;;;;;199.13;63.55;;;;;;;-0.10;100.00;102146.41;5034067;23;20049;-73
2023/03/03 06:03:06;;;;;;;203.80;65.40;;;;;;;-0.17;100.00;102136.47;5003739;28;20029;-73
2023/03/03 06:05:32;;;;;;;206.55;62.10;;;;;;;-0.15;100.00;102134.72;5006948;28;20092;-73
2023/03/03 06:07:58;;;;;;;197.43;60.33;;;;;;;-0.17;100.00;102134.78;5006458;28;20725;-73
2023/03/03 06:10:24;;;;;;;201.27;62.88;;;;;;;-0.08;100.00;102141.25;5020097;28;20057;-73
2023/03/03 06:12:54;;;;;;;213.98;66.95;;;;;;;-0.08;100.00;102143.81;5002454;28;20064;-73
2023/03/03 06:15:21;;;;;;;201.45;65.47;;;;;;;-0.05;100.00;102156.47;4999808;28;20042;-73
2023/03/03 06:17:46;;;;;;;213.23;65.03;;;;;;;-0.02;100.00;102161.44;5003137;28;20552;-73
2023/03/03 06:20:12;;;;;;;203.15;65.50;;;;;;;-0.08;100.00;102166.75;4971583;28;20169;-73
2023/03/03 06:22:37;;;;;;;201.07;62.60;;;;;;;-0.15;100.00;102170.41;5001434;28;20050;-73
2023/03/03 06:25:03;;;;;;;205.50;64.68;;;;;;;-0.06;100.00;102175.19;4989692;28;20480;-73
2023/03/03 06:27:29;;;;;;;206.10;61.90;;;;;;;-0.09;100.00;102173.59;5003825;28;20037;-73
2023/03/03 06:29:54;;;;;;;198.52;62.20;;;;;;;-0.15;100.00;102175.50;4989723;28;20120;-73
2023/03/03 06:32:20;;;;;;;186.98;58.00;;;;;;;-0.15;100.00;102171.25;5007331;28;20038;-73
2023/03/03 06:34:45;;;;;;;186.07;58.80;;;;;;;-0.09;100.00;102171.03;4985329;28;20053;-73
2023/03/03 06:37:11;;;;;;;188.35;56.85;;;;;;;-0.17;100.00;102170.50;5004003;28;20038;-73
2023/03/03 06:39:36;;;;;;;186.93;54.70;;;;;;;-0.20;100.00;102176.50;4992853;28;20542;-73
2023/03/03 06:42:02;;;;;;;191.98;55.75;;;;;;;-0.19;100.00;102177.31;4991618;28;20038;-73
2023/03/03 06:44:27;;;;;;;190.18;57.13;;;;;;;-0.10;100.00;102178.75;4993198;28;20034;-73
2023/03/03 06:46:56;;;;;;;190.07;56.20;;;;;;;-0.07;100.00;102188.84;4977148;28;20108;-73
2023/03/03 06:49:21;;;;;;;195.30;57.40;;;;;;;-0.12;100.00;102196.63;4992376;28;20030;-73
2023/03/03 06:51:47;;;;;;;188.45;55.28;;;;;;;-0.01;100.00;102194.56;5001695;28;20042;-73
2023/03/03 06:54:15;;;;;;;183.93;53.65;;;;;;;-0.08;100.00;102202.47;4994800;28;20030;-73
2023/03/03 06:56:42;;;;;;;191.32;54.53;;;;;;;-0.11;100.00;102205.97;4990220;28;20034;-73
2023/03/03 06:59:21;;;;;;;199.27;59.63;;;;;;;-0.10;100.00;102202.50;5007044;28;20449;-73
2023/03/03 07:01:50;;;;;;;182.07;52.22;;;;;;;-0.01;100.00;102206.47;5004843;28;22117;-72
2023/03/03 07:04:30;;;;;;;187.65;53.47;;;;;;;-0.03;100.00;102198.06;5005583;28;20057;-73
2023/03/03 07:07:12;;;;;;;183.85;52.10;;;;;;;-0.07;100.00;102204.16;5002173;28;20034;-73
2023/03/03 07:09:37;;;;;;;194.80;55.42;;;;;;;-0.06;100.00;102200.69;5006072;28;20029;-73
2023/03/03 07:12:12;;;;;;;184.00;55.42;;;;;;;-0.02;100.00;102208.22;4992058;28;20104;-73
2023/03/03 07:14:44;;;;;;;195.98;60.05;;;;;;;-0.05;100.00;102204.94;5006493;28;20033;-73
2023/03/03 07:17:15;;;;;;;189.55;58.55;;;;;;;-0.06;100.00;102201.56;5002625;28;20045;-73
2023/03/03 07:19:42;;;;;;;190.07;54.60;;;;;;;0.04;100.00;102207.16;4974213;28;20541;-73
2023/03/03 07:22:14;;;;;;;176.48;54.60;;;;;;;-0.01;100.00;102212.41;4991459;28;20041;-73
2023/03/03 07:24:42;;;;;;;189.43;53.17;;;;;;;0.02;100.00;102210.63;4991966;28;20040;-72
2023/03/03 07:27:24;;;;;;;184.60;55.50;;;;;;;0.00;100.00;102220.91;5003964;28;20092;-73
2023/03/03 07:29:53;;;;;;;189.40;54.58;;;;;;;0.04;100.00;102213.97;4987516;28;20632;-73
2023/03/03 07:32:42;;;;;;;174.68;54.67;;;;;;;0.10;100.00;102232.44;5004099;28;20045;-72
2023/03/03 07:35:46;;;;;;;188.30;55.65;;;;;;;0.14;100.00;102225.53;5004005;28;20568;-73
2023/03/03 07:38:35;;;;;;;178.27;52.20;;;;;;;0.13;100.00;102222.16;4925514;29;20704;-73
2023/03/03 07:41:04;;;;;;;189.02;58.33;;;;;;;0.15;100.00;102228.03;4922804;29;20606;-73
2023/03/03 07:43:32;;;;;;;184.20;57.33;;;;;;;0.11;100.00;102231.53;4954868;28;20052;-73
2023/03/03 07:46:10;;;;;;;179.52;53.03;;;;;;;0.09;100.00;102229.94;5006667;28;20064;-72
2023/03/03 07:48:41;;;;;;;189.00;55.08;;;;;;;0.15;100.00;102239.94;5007934;28;20057;-73
2023/03/03 07:51:40;;;;;;;195.07;60.15;;;;;;;0.20;100.00;102235.50;5004699;28;20046;-73
2023/03/03 07:54:36;;;;;;;202.45;60.88;;;;;;;0.17;100.00;102236.47;5001349;28;20072;-73
2023/03/03 07:57:12;;;;;;;201.90;63.10;;;;;;;0.25;100.00;102245.56;4989630;28;20030;-73
2023/03/03 07:59:44;;;;;;;197.93;62.67;;;;;;;0.23;100.00;102237.09;5002953;28;20042;-73
2023/03/03 08:02:43;;;;;;;205.13;61.55;;;;;;;0.29;100.00;102245.41;4987962;28;20056;-73
2023/03/03 08:05:27;;;;;;;206.48;64.97;;;;;;;0.31;100.00;102253.81;4994469;28;20053;-73
2023/03/03 08:08:11;;;;;;;198.10;60.60;;;;;;;0.35;100.00;102257.94;4990352;28;20442;-73
2023/03/03 08:10:52;;;;;;;209.73;62.65;;;;;;;0.35;100.00;102252.81;5003086;28;20419;-73
2023/03/03 08:13:20;;;;;;;210.98;60.90;;;;;;;0.34;100.00;102252.88;4987742;28;20130;-73
2023/03/03 08:15:58;;;;;;;194.77;61.50;;;;;;;0.44;100.00;102261.88;5001280;28;20578;-73
2023/03/03 08:18:34;;;;;;;197.52;58.90;;;;;;;0.46;100.00;102256.72;4986547;28;20037;-72
2023/03/03 08:21:03;;;;;;;197.43;60.10;;;;;;;0.46;100.00;102266.94;4987265;28;20412;-73
2023/03/03 08:23:29;;;;;;;198.45;60.13;;;;;;;0.45;100.00;102266.09;4989974;28;20037;-73
2023/03/03 08:25:54;;;;;;;186.38;56.75;;;;;;;0.52;100.00;102272.66;4971380;28;20038;-73
2023/03/03 08:28:21;;;;;;;178.88;55.80;;;;;;;0.56;100.00;102279.31;4990665;28;20114;-72
2023/03/03 08:30:47;;;;;;;191.40;57.63;;;;;;;0.53;99.92;102279.44;5007237;28;20342;-73
2023/03/03 08:33:14;;;;;;;182.70;56.90;;;;;;;0.57;100.00;102277.59;4989672;28;20065;-73
2023/03/03 08:35:40;;;;;;;183.85;54.85;;;;;;;0.54;99.82;102286.19;5006067;28;20030;-73
2023/03/03 08:38:07;;;;;;;196.95;56.95;;;;;;;0.57;100.00;102285.25;4998685;28;20030;-73
2023/03/03 08:40:34;;;;;;;199.77;57.13;;;;;;;0.61;100.00;102286.81;4959323;28;20078;-73
2023/03/03 08:43:00;;;;;;;175.25;52.47;;;;;;;0.66;99.57;102290.03;4991256;28;20053;-73
2023/03/03 08:45:26;;;;;;;180.93;56.30;;;;;;;0.69;99.37;102291.63;4997459;28;20043;-73
2023/03/03 08:47:52;;;;;;;170.35;54.17;;;;;;;0.67;99.36;102285.75;5001195;28;20040;-73
2023/03/03 08:50:18;;;;;;;169.07;54.03;;;;;;;0.74;98.93;102282.91;5006682;28;21456;-73
2023/03/03 08:52:44;;;;;;;173.60;51.70;;;;;;;0.82;98.81;102289.47;5003777;28;20031;-73
2023/03/03 08:55:10;;;;;;;174.60;54.80;;;;;;;0.75;98.23;102289.72;4975289;28;20042;-73
2023/03/03 08:57:36;;;;;;;179.55;55.05;;;;;;;0.66;98.48;102295.16;4983585;28;20125;-73
2023/03/03 09:00:01;;;;;;;185.32;56.55;;;;;;;0.71;98.69;102298.34;5002059;28;20557;-74
2023/03/03 09:02:27;;;;;;;167.60;54.35;;;;;;;0.77;99.05;102299.84;4990429;28;20034;-73
2023/03/03 09:04:53;;;;;;;173.02;53.40;;;;;;;0.80;98.74;102299.75;4987318;28;20031;-73
2023/03/03 09:07:18;;;;;;;175.02;53.47;;;;;;;0.82;98.52;102303.06;4998222;28;20450;-73
2023/03/03 09:09:44;;;;;;;174.10;55.95;;;;;;;0.95;98.53;102304.28;4999055;28;20805;-73
2023/03/03 09:12:23;;;;;;;170.93;54.55;;;;;;;0.95;97.90;102300.91;4987204;28;20062;-73
2023/03/03 09:14:50;;;;;;;183.65;56.45;;;;;;;0.83;97.37;102304.75;4996150;28;20392;-73
2023/03/03 09:17:25;;;;;;;183.27;57.15;;;;;;;0.79;97.16;102308.28;4989226;28;20046;-73
2023/03/03 09:19:54;;;;;;;182.50;56.55;;;;;;;0.86;97.91;102308.91;5001162;28;20030;-73
2023/03/03 09:22:23;;;;;;;186.50;56.83;;;;;;;0.93;97.89;102315.47;4986671;28;20043;-73
2023/03/03 09:24:52;;;;;;;182.43;54.38;;;;;;;0.88;97.64;102307.94;4996610;28;20034;-72
2023/03/03 09:27:29;;;;;;;176.10;55.53;;;;;;;0.85;97.83;102307.22;4986720;28;20053;-73
2023/03/03 09:30:00;;;;;;;194.55;61.15;;;;;;;0.89;97.31;102309.63;4998381;28;20037;-73
2023/03/03 09:32:33;;;;;;;181.43;57.83;;;;;;;0.97;97.04;102310.16;4985042;28;20065;-73
2023/03/03 09:35:19;;;;;;;191.65;59.55;;;;;;;0.99;96.83;102316.97;4997893;28;20041;-73
2023/03/03 09:37:49;;;;;;;191.07;59.30;;;;;;;0.96;96.53;102323.84;5002856;28;20144;-73
2023/03/03 09:40:40;;;;;;;195.45;61.83;;;;;;;1.04;96.91;102318.44;4984296;28;20045;-73
2023/03/03 09:43:26;;;;;;;187.23;55.78;;;;;;;1.12;96.44;102324.09;4985084;28;20073;-73
2023/03/03 09:46:05;;;;;;;195.90;60.20;;;;;;;1.05;96.54;102329.50;4984837;28;20121;-73
2023/03/03 09:48:43;;;;;;;187.18;57.47;;;;;;;1.04;97.30;102333.78;4982658;28;20029;-73
2023/03/03 09:51:53;;;;;;;184.07;59.22;;;;;;;1.07;97.68;102341.31;4983618;28;20671;-73
2023/03/03 09:54:45;;;;;;;186.32;61.33;;;;;;;1.15;96.74;102341.06;4963768;28;20096;-73
2023/03/03 09:57:40;;;;;;;187.82;60.60;;;;;;;1.13;95.42;102332.59;4983937;28;20072;-72
2023/03/03 10:00:27;;;;;;;197.70;62.15;;;;;;;1.14;94.61;102334.25;4913101;28;20112;-73
2023/03/03 10:03:34;;;;;;;199.18;63.67;;;;;;;1.23;95.07;102339.03;4984158;28;20030;-73
2023/03/03 10:06:26;;;;;;;202.52;64.55;;;;;;;1.22;95.58;102337.34;4985728;28;20060;-73
2023/03/03 10:09:29;;;;;;;204.48;61.83;;;;;;;1.29;94.84;102340.53;4979897;28;20175;-72
2023/03/03 10:12:14;;;;;;;197.65;59.22;;;;;;;1.28;94.47;102333.72;4990788;28;20042;-73
2023/03/03 15:56:18;;;;;;;46.92;17.08;;;;;;;4.93;78.31;102173.19;4996920;28;20415;-72
2023/03/03 15:59:22;;;;;;;47.13;17.67;;;;;;;4.83;78.93;102183.16;5019600;28;20026;-73
2023/03/03 16:01:47;;;;;;;;;;;;;;;4.79;79.22;102174.78;5027713;28;20037;-73
2023/03/03 16:04:28;;;;;;;42.60;15.82;;;;;;;4.77;79.81;102176.63;4996073;28;20954;-73
2023/03/03 16:07:15;;;;;;;45.58;16.55;;;;;;;4.76;80.00;102174.94;5011651;28;20125;-73
2023/03/03 16:09:51;;;;;;;48.10;16.05;;;;;;;4.79;79.68;102171.41;5007332;28;20129;-73
2023/03/03 16:12:38;;;;;;;46.00;18.00;;;;;;;4.78;79.86;102174.88;5006755;28;20045;-73
2023/03/03 16:15:32;;;;;;;44.88;17.20;;;;;;;4.77;79.69;102176.63;5011008;28;20035;-73
2023/03/03 16:18:09;;;;;;;42.53;14.73;;;;;;;4.74;80.14;102174.19;5013305;28;20034;-73
2023/03/03 16:20:44;;;;;;;43.53;13.43;;;;;;;4.68;80.01;102182.25;4985509;28;20413;-72
2023/03/03 16:23:16;;;;;;;39.78;13.35;;;;;;;4.76;80.39;102179.25;5012764;28;20450;-72
2023/03/03 16:25:57;;;;;;;36.97;12.95;;;;;;;4.74;79.44;102173.38;5011249;28;20037;-73
2023/03/03 16:29:02;;;;;;;37.38;11.40;;;;;;;4.76;78.27;102177.50;5009603;28;20037;-73
2023/03/03 16:31:34;;;;;;;31.15;12.25;;;;;;;4.69;79.04;102178.78;4992387;28;20073;-73
2023/03/03 16:34:24;;;;;;;39.15;13.60;;;;;;;4.62;79.84;102185.16;5009674;28;20038;-73
2023/03/03 16:37:21;;;;;;;31.35;12.35;;;;;;;4.62;80.15;102180.84;4991305;28;20054;-72
2023/03/03 16:40:02;;;;;;;38.25;14.07;;;;;;;4.60;80.80;102181.84;5010615;28;20025;-73
2023/03/03 16:42:30;;;;;;;36.15;12.80;;;;;;;4.62;80.79;102177.47;5013773;28;20038;-72
2023/03/03 16:44:58;;;;;;;39.22;14.70;;;;;;;4.56;80.81;102178.63;5014178;28;20030;-73
2023/03/03 16:47:54;;;;;;;49.60;18.83;;;;;;;4.46;80.90;102185.16;5013368;28;20065;-73
2023/03/03 16:50:48;;;;;;;49.90;17.48;;;;;;;4.34;81.19;102189.22;5002657;28;20046;-73
2023/03/03 16:53:47;;;;;;;42.03;14.23;;;;;;;4.28;81.89;102187.78;5010664;28;20558;-73
2023/03/03 16:56:37;;;;;;;41.15;13.93;;;;;;;4.24;82.66;102196.56;5014144;28;20044;-73
2023/03/03 16:59:28;;;;;;;35.08;13.48;;;;;;;4.20;82.78;102194.22;5007677;28;20037;-72
2023/03/03 17:02:13;;;;;;;35.47;12.32;;;;;;;4.13;82.98;102198.88;5007396;28;20070;-73